FAUP

Pierre Van Ryneveld Airport

Airport
ICAO code
FAUP
IATA Code
UTN
Summary
ICAO Region
AFI
ICAO Territory
Location

, Northern Cape

Serving
Upington
Elevation
2782 ft
Coordinates
28° 23' 57" S , 21° 15' 37" E
Metar
FAUP 212300Z 20008KT CAVOK 26/04 Q1013 NOSIG

Runways

Designator Length Width Surface Rops
8/26 834 30 COM Yes/Yes
17/35 4900 60 ASP Yes/Yes

Airport map

Aerial View

SKYbrary Partners:

Safety knowledge contributed by: